Gennaro Ievoli — 9HA3007 — position and weather

sailwx.info

Track history (hours):
 
Tides and Currents Weather Stations Pressure Air Temp Water Temp Dewpoint Dewpoint Depression Visibility Wind Speed Wind Dir Waves Ship Positions

Gennaro Ievoli

Last reported at 2018-Apr-08 16:34 UTC. Time now 2018-Apr-26 23:16 UTC.
Position N 01°19' E 103°20'.
Warning: this ship's position is 18 days out of date.

Length 170 m; draft 10.9 m.

Type: Ship (hazmat cat B). MMSI: 229031000.

Date/timePositionNaut miles runAvg speedWind from/ knotsBaromVisibWave heightAir tempDewpointWater temp
2018-Apr-08 16:34N 01°19' E 103°20'112.6
2018-Apr-08 16:27N 01°18' E 103°21'611.4
2018-Apr-08 15:58N 01°14' E 103°25'612.0
2018-Apr-08 15:30N 01°12' E 103°30'612.6
2018-Apr-08 15:00N 01°11' E 103°37'510.6
2018-Apr-08 14:31N 01°10' E 103°42'1 2.5
2018-Apr-08 13:57N 01°10' E 103°43'0 0.0
2018-Apr-08 13:27N 01°10' E 103°43'0 0.2
2018-Apr-08 12:57N 01°10' E 103°43'0 0.0
2018-Apr-08 12:30N 01°10' E 103°43'0 0.0
2018-Apr-08 11:48N 01°10' E 103°43'0 0.2
2018-Apr-08 11:30N 01°10' E 103°43'0 0.1
2018-Apr-08 11:00N 01°10' E 103°43'0 0.2
2018-Apr-08 10:27N 01°10' E 103°43'0 0.1
2018-Apr-08 10:00N 01°10' E 103°43'0 0.2
2018-Apr-08 09:30N 01°10' E 103°43'0 0.2
2018-Apr-08 09:00N 01°10' E 103°43'0 0.0
2018-Apr-08 08:27N 01°10' E 103°43'0 0.1
2018-Apr-08 07:57N 01°10' E 103°43'0 0.0
2018-Apr-08 07:20N 01°10' E 103°43'0 0.7
2018-Apr-08 07:00N 01°10' E 103°43'2 3.7
2018-Apr-08 06:30N 01°09' E 103°45'4 7.9
2018-Apr-08 06:00N 01°11' E 103°48'4 8.0
2018-Apr-08 05:30N 01°12' E 103°52'5 9.3
2018-Apr-08 04:59N 01°14' E 103°56'  
2018-Apr-02 17:30N 23°50' E 122°14'713.3
2018-Apr-02 16:59N 23°56' E 122°15'713.2
2018-Apr-02 16:28N 24°03' E 122°16'612.6
2018-Apr-02 15:59N 24°09' E 122°18'612.5
2018-Apr-02 15:30N 24°14' E 122°21'612.7
2018-Apr-02 15:00N 24°20' E 122°24'611.9
2018-Apr-02 14:30N 24°26' E 122°26'611.3
2018-Apr-02 14:00N 24°31' E 122°28'611.4
2018-Apr-02 13:30N 24°37' E 122°29'611.5
2018-Apr-02 13:00N 24°42' E 122°30'611.3
2018-Apr-02 12:30N 24°48' E 122°32'611.6
2018-Apr-02 12:00N 24°53' E 122°34'710.8
2018-Apr-02 11:21N 25°00' E 122°35'410.2
2018-Apr-02 10:57N 25°04' E 122°36'363 8.0
2018-Mar-31 13:38N 31°07' E 122°27'0 0.2
2018-Mar-31 13:10N 31°07' E 122°27'0 0.6
2018-Mar-31 12:59N 31°07' E 122°27'3 4.6
2018-Mar-31 12:25N 31°06' E 122°24'510.7
2018-Mar-31 11:59N 31°06' E 122°19'5 8.2
2018-Mar-31 11:25N 31°09' E 122°14'3 5.5
2018-Mar-31 10:51N 31°10' E 122°11'616.9
2018-Mar-31 10:28N 31°14' E 122°05'8 8.2
2018-Mar-31 09:28N 31°15' E 121°55'914.3
2018-Mar-31 08:49N 31°18' E 121°45'16 8.9
2018-Mar-31 07:00N 31°27' E 121°29'2 4.0
2018-Mar-31 06:26N 31°28' E 121°27'4 7.6
2018-Mar-31 05:53N 31°31' E 121°23'4 6.7
2018-Mar-31 05:21N 31°33' E 121°20'0 0.5
2018-Mar-31 05:00N 31°34' E 121°20'0 0.0
2018-Mar-31 04:30N 31°34' E 121°20'0 0.0
2018-Mar-31 03:57N 31°34' E 121°20'0 0.0
2018-Mar-31 03:30N 31°34' E 121°20'0 0.0
2018-Mar-31 03:00N 31°34' E 121°20'0 0.2
2018-Mar-31 02:30N 31°34' E 121°20'0 0.2
2018-Mar-31 01:48N 31°33' E 121°20'0 0.0
2018-Mar-31 01:30N 31°33' E 121°20'0 0.0
2018-Mar-31 01:00N 31°33' E 121°20'0 0.0
2018-Mar-31 00:27N 31°33' E 121°20'0 0.0
2018-Mar-31 00:00N 31°33' E 121°20'0 0.0
2018-Mar-30 23:30N 31°33' E 121°20'0 0.0
2018-Mar-30 23:00N 31°33' E 121°20'0 0.0
2018-Mar-30 22:27N 31°33' E 121°20'0 0.0
2018-Mar-30 21:57N 31°33' E 121°20'0 0.0
2018-Mar-30 21:30N 31°33' E 121°20'0 0.0
2018-Mar-30 21:00N 31°33' E 121°20'0 0.0
2018-Mar-30 20:27N 31°33' E 121°20'0 0.0
2018-Mar-30 20:00N 31°33' E 121°20'0 0.4
2018-Mar-30 19:27N 31°34' E 121°20'0 0.2
2018-Mar-30 19:00N 31°34' E 121°20'0 0.1
2018-Mar-30 18:30N 31°34' E 121°20'0 0.0
2018-Mar-30 18:00N 31°34' E 121°20'0 0.0
2018-Mar-30 17:30N 31°34' E 121°20'0 0.0
2018-Mar-30 16:54N 31°34' E 121°20'0 0.0
2018-Mar-30 16:21N 31°34' E 121°20'0 0.0
2018-Mar-30 16:00N 31°34' E 121°20'0 0.0
2018-Mar-30 15:30N 31°34' E 121°20'0 0.0
2018-Mar-30 15:00N 31°34' E 121°20'0 0.1
2018-Mar-30 14:24N 31°34' E 121°20'0 0.4
2018-Mar-30 13:57N 31°33' E 121°20'0 0.1
2018-Mar-30 13:27N 31°33' E 121°20'0 0.0
2018-Mar-30 13:00N 31°33' E 121°20'0 0.0
2018-Mar-30 12:30N 31°33' E 121°20'0 0.0
2018-Mar-30 11:57N 31°33' E 121°20'0 0.0
2018-Mar-30 11:30N 31°33' E 121°20'0 0.0
2018-Mar-30 11:00N 31°33' E 121°20'0 0.0
2018-Mar-30 10:27N 31°33' E 121°20'0 0.0
2018-Mar-30 10:00N 31°33' E 121°20'0 0.0
2018-Mar-30 09:30N 31°33' E 121°20'0 0.0
2018-Mar-30 09:00N 31°33' E 121°20'0 0.0
2018-Mar-30 08:30N 31°33' E 121°20'0 0.0
2018-Mar-30 08:00N 31°33' E 121°20'0 0.2
2018-Mar-30 07:21N 31°34' E 121°20'0 0.2
2018-Mar-30 06:57N 31°34' E 121°20'0 0.0
2018-Mar-30 06:30N 31°34' E 121°20'0 0.0
2018-Mar-30 05:51N 31°34' E 121°20'0 0.0
2018-Mar-30 05:30N 31°34' E 121°20'0 0.0
2018-Mar-30 05:00N 31°34' E 121°20'0 0.0
2018-Mar-30 04:30N 31°34' E 121°20'0 0.0
2018-Mar-30 04:00N 31°34' E 121°20'0 0.0
2018-Mar-30 03:30N 31°34' E 121°20'0 0.0
2018-Mar-30 02:57N 31°34' E 121°20'0 0.0
2018-Mar-30 02:27N 31°34' E 121°20'0 0.1
2018-Mar-30 02:00N 31°34' E 121°20'0 0.3
2018-Mar-30 01:30N 31°33' E 121°20'0 0.1
2018-Mar-30 01:00N 31°33' E 121°20'0 0.0
2018-Mar-30 00:30N 31°33' E 121°20'0 0.0
2018-Mar-30 00:00N 31°33' E 121°20'0 0.0
2018-Mar-29 23:30N 31°33' E 121°20'0 0.0
2018-Mar-29 23:00N 31°33' E 121°20'0 0.0
2018-Mar-29 22:30N 31°33' E 121°20'0 0.0
2018-Mar-29 22:00N 31°33' E 121°20'0 0.0
2018-Mar-29 21:30N 31°33' E 121°20'0 0.0
2018-Mar-29 20:57N 31°33' E 121°20'0 0.0
2018-Mar-29 20:27N 31°33' E 121°20'0 0.0
2018-Mar-29 20:00N 31°33' E 121°20'0 0.0
2018-Mar-29 19:27N 31°33' E 121°20'0 0.1
2018-Mar-29 18:57N 31°33' E 121°20'0 0.3
2018-Mar-29 18:30N 31°34' E 121°20'0 0.2
2018-Mar-29 18:00N 31°34' E 121°20'0 0.0
2018-Mar-29 17:30N 31°34' E 121°20'0 0.0
2018-Mar-29 16:57N 31°34' E 121°20'  
Track history (hours):
 
Tides and Currents Weather Stations Pressure Air Temp Water Temp Dewpoint Dewpoint Depression Visibility Wind Speed Wind Dir Waves Ship Positions

Gennaro Ievoli

Last reported at 2018-Apr-08 16:34 UTC. Time now 2018-Apr-26 23:16 UTC.
Position N 01°19' E 103°20'.
Warning: this ship's position is 18 days out of date.

Length 170 m; draft 10.9 m.

Type: Ship (hazmat cat B). MMSI: 229031000.

Date/timePositionNaut miles runAvg speedWind from/ knotsBaromVisibWave heightAir tempDewpointWater temp
2018-Apr-08 16:34N 01°19' E 103°20'112.6
2018-Apr-08 16:27N 01°18' E 103°21'611.4
2018-Apr-08 15:58N 01°14' E 103°25'612.0
2018-Apr-08 15:30N 01°12' E 103°30'612.6
2018-Apr-08 15:00N 01°11' E 103°37'510.6
2018-Apr-08 14:31N 01°10' E 103°42'1 2.5
2018-Apr-08 13:57N 01°10' E 103°43'0 0.0
2018-Apr-08 13:27N 01°10' E 103°43'0 0.2
2018-Apr-08 12:57N 01°10' E 103°43'0 0.0
2018-Apr-08 12:30N 01°10' E 103°43'0 0.0
2018-Apr-08 11:48N 01°10' E 103°43'0 0.2
2018-Apr-08 11:30N 01°10' E 103°43'0 0.1
2018-Apr-08 11:00N 01°10' E 103°43'0 0.2
2018-Apr-08 10:27N 01°10' E 103°43'0 0.1
2018-Apr-08 10:00N 01°10' E 103°43'0 0.2
2018-Apr-08 09:30N 01°10' E 103°43'0 0.2
2018-Apr-08 09:00N 01°10' E 103°43'0 0.0
2018-Apr-08 08:27N 01°10' E 103°43'0 0.1
2018-Apr-08 07:57N 01°10' E 103°43'0 0.0
2018-Apr-08 07:20N 01°10' E 103°43'0 0.7
2018-Apr-08 07:00N 01°10' E 103°43'2 3.7
2018-Apr-08 06:30N 01°09' E 103°45'4 7.9
2018-Apr-08 06:00N 01°11' E 103°48'4 8.0
2018-Apr-08 05:30N 01°12' E 103°52'5 9.3
2018-Apr-08 04:59N 01°14' E 103°56'  
2018-Apr-02 17:30N 23°50' E 122°14'713.3
2018-Apr-02 16:59N 23°56' E 122°15'713.2
2018-Apr-02 16:28N 24°03' E 122°16'612.6
2018-Apr-02 15:59N 24°09' E 122°18'612.5
2018-Apr-02 15:30N 24°14' E 122°21'612.7
2018-Apr-02 15:00N 24°20' E 122°24'611.9
2018-Apr-02 14:30N 24°26' E 122°26'611.3
2018-Apr-02 14:00N 24°31' E 122°28'611.4
2018-Apr-02 13:30N 24°37' E 122°29'611.5
2018-Apr-02 13:00N 24°42' E 122°30'611.3
2018-Apr-02 12:30N 24°48' E 122°32'611.6
2018-Apr-02 12:00N 24°53' E 122°34'710.8
2018-Apr-02 11:21N 25°00' E 122°35'410.2
2018-Apr-02 10:57N 25°04' E 122°36'363 8.0
2018-Mar-31 13:38N 31°07' E 122°27'0 0.2
2018-Mar-31 13:10N 31°07' E 122°27'0 0.6
2018-Mar-31 12:59N 31°07' E 122°27'3 4.6
2018-Mar-31 12:25N 31°06' E 122°24'510.7
2018-Mar-31 11:59N 31°06' E 122°19'5 8.2
2018-Mar-31 11:25N 31°09' E 122°14'3 5.5
2018-Mar-31 10:51N 31°10' E 122°11'616.9
2018-Mar-31 10:28N 31°14' E 122°05'8 8.2
2018-Mar-31 09:28N 31°15' E 121°55'914.3
2018-Mar-31 08:49N 31°18' E 121°45'16 8.9
2018-Mar-31 07:00N 31°27' E 121°29'2 4.0
2018-Mar-31 06:26N 31°28' E 121°27'4 7.6
2018-Mar-31 05:53N 31°31' E 121°23'4 6.7
2018-Mar-31 05:21N 31°33' E 121°20'0 0.5
2018-Mar-31 05:00N 31°34' E 121°20'0 0.0
2018-Mar-31 04:30N 31°34' E 121°20'0 0.0
2018-Mar-31 03:57N 31°34' E 121°20'0 0.0
2018-Mar-31 03:30N 31°34' E 121°20'0 0.0
2018-Mar-31 03:00N 31°34' E 121°20'0 0.2
2018-Mar-31 02:30N 31°34' E 121°20'0 0.2
2018-Mar-31 01:48N 31°33' E 121°20'0 0.0
2018-Mar-31 01:30N 31°33' E 121°20'0 0.0
2018-Mar-31 01:00N 31°33' E 121°20'0 0.0
2018-Mar-31 00:27N 31°33' E 121°20'0 0.0
2018-Mar-31 00:00N 31°33' E 121°20'0 0.0
2018-Mar-30 23:30N 31°33' E 121°20'0 0.0
2018-Mar-30 23:00N 31°33' E 121°20'0 0.0
2018-Mar-30 22:27N 31°33' E 121°20'0 0.0
2018-Mar-30 21:57N 31°33' E 121°20'0 0.0
2018-Mar-30 21:30N 31°33' E 121°20'0 0.0
2018-Mar-30 21:00N 31°33' E 121°20'0 0.0
2018-Mar-30 20:27N 31°33' E 121°20'0 0.0
2018-Mar-30 20:00N 31°33' E 121°20'0 0.4
2018-Mar-30 19:27N 31°34' E 121°20'0 0.2
2018-Mar-30 19:00N 31°34' E 121°20'0 0.1
2018-Mar-30 18:30N 31°34' E 121°20'0 0.0
2018-Mar-30 18:00N 31°34' E 121°20'0 0.0
2018-Mar-30 17:30N 31°34' E 121°20'0 0.0
2018-Mar-30 16:54N 31°34' E 121°20'0 0.0
2018-Mar-30 16:21N 31°34' E 121°20'0 0.0
2018-Mar-30 16:00N 31°34' E 121°20'0 0.0
2018-Mar-30 15:30N 31°34' E 121°20'0 0.0
2018-Mar-30 15:00N 31°34' E 121°20'0 0.1
2018-Mar-30 14:24N 31°34' E 121°20'0 0.4
2018-Mar-30 13:57N 31°33' E 121°20'0 0.1
2018-Mar-30 13:27N 31°33' E 121°20'0 0.0
2018-Mar-30 13:00N 31°33' E 121°20'0 0.0
2018-Mar-30 12:30N 31°33' E 121°20'0 0.0
2018-Mar-30 11:57N 31°33' E 121°20'0 0.0
2018-Mar-30 11:30N 31°33' E 121°20'0 0.0
2018-Mar-30 11:00N 31°33' E 121°20'0 0.0
2018-Mar-30 10:27N 31°33' E 121°20'0 0.0
2018-Mar-30 10:00N 31°33' E 121°20'0 0.0
2018-Mar-30 09:30N 31°33' E 121°20'0 0.0
2018-Mar-30 09:00N 31°33' E 121°20'0 0.0
2018-Mar-30 08:30N 31°33' E 121°20'0 0.0
2018-Mar-30 08:00N 31°33' E 121°20'0 0.2
2018-Mar-30 07:21N 31°34' E 121°20'0 0.2
2018-Mar-30 06:57N 31°34' E 121°20'0 0.0
2018-Mar-30 06:30N 31°34' E 121°20'0 0.0
2018-Mar-30 05:51N 31°34' E 121°20'0 0.0
2018-Mar-30 05:30N 31°34' E 121°20'0 0.0
2018-Mar-30 05:00N 31°34' E 121°20'0 0.0
2018-Mar-30 04:30N 31°34' E 121°20'0 0.0
2018-Mar-30 04:00N 31°34' E 121°20'0 0.0
2018-Mar-30 03:30N 31°34' E 121°20'0 0.0
2018-Mar-30 02:57N 31°34' E 121°20'0 0.0
2018-Mar-30 02:27N 31°34' E 121°20'0 0.1
2018-Mar-30 02:00N 31°34' E 121°20'0 0.3
2018-Mar-30 01:30N 31°33' E 121°20'0 0.1
2018-Mar-30 01:00N 31°33' E 121°20'0 0.0
2018-Mar-30 00:30N 31°33' E 121°20'0 0.0
2018-Mar-30 00:00N 31°33' E 121°20'0 0.0
2018-Mar-29 23:30N 31°33' E 121°20'0 0.0
2018-Mar-29 23:00N 31°33' E 121°20'0 0.0
2018-Mar-29 22:30N 31°33' E 121°20'0 0.0
2018-Mar-29 22:00N 31°33' E 121°20'0 0.0
2018-Mar-29 21:30N 31°33' E 121°20'0 0.0
2018-Mar-29 20:57N 31°33' E 121°20'0 0.0
2018-Mar-29 20:27N 31°33' E 121°20'0 0.0
2018-Mar-29 20:00N 31°33' E 121°20'0 0.0
2018-Mar-29 19:27N 31°33' E 121°20'0 0.1
2018-Mar-29 18:57N 31°33' E 121°20'0 0.3
2018-Mar-29 18:30N 31°34' E 121°20'0 0.2
2018-Mar-29 18:00N 31°34' E 121°20'0 0.0
2018-Mar-29 17:30N 31°34' E 121°20'0 0.0
2018-Mar-29 16:57N 31°34' E 121°20'  

Dump ship's entire track history